Terminal Aerodrome Forecast
Issued by NWS Mt. Holly, NJ

Home | Current Version | Previous Version | Text Only | Print | Product List | Glossary On
Versions: 1 2 3 4 5 6 7 8 9 10 11 12 13 14
000
FTUS41 KPHI 311100
TAFACY
TAF
KACY 311120Z 3112/0112 VRB02KT P6SM SCT080
     FM311500 20009KT P6SM FEW050
     FM010000 17005KT P6SM BKN200
     FM010800 VRB02KT 5SM BR BKN150=

USA.gov is the U.S. government's official web portal to all federal, state and local government web resources and services.